Time;durP1;ratioP1;P1;durP2;ratioP2;P2;SDS_P1;SDS_P2;PMS_P1;PMS_P2;Temp;Humidity;BMP_temperature;BMP_pressure;BME280_temperature;BME280_humidity;BME280_pressure;Samples;Min_cycle;Max_cycle;Signal;HPM_P1;HPM_P2
2023/07/06 00:00:53;;;;;;;12.65;4.25;;;12.50;99.90;;;;;;4990072;28;20697;-65
2023/07/06 00:03:20;;;;;;;13.15;4.80;;;12.50;99.90;;;;;;4988373;28;20060;-66
2023/07/06 00:05:46;;;;;;;10.38;4.47;;;12.50;99.90;;;;;;4989934;28;20041;-66
2023/07/06 00:08:12;;;;;;;10.18;4.80;;;12.50;99.90;;;;;;4989662;28;20471;-65
2023/07/06 00:10:42;;;;;;;15.05;4.88;;;12.50;99.90;;;;;;4988407;28;20457;-65
2023/07/06 00:13:08;;;;;;;11.80;4.57;;;12.40;99.90;;;;;;4985765;28;20104;-66
2023/07/06 00:15:34;;;;;;;8.70;4.63;;;12.40;99.90;;;;;;5006405;28;20107;-66
2023/07/06 00:18:03;;;;;;;12.13;4.95;;;12.40;99.90;;;;;;5007515;28;20037;-66
2023/07/06 00:20:32;;;;;;;12.15;5.40;;;12.40;99.90;;;;;;5006638;28;20042;-65
2023/07/06 00:22:59;;;;;;;13.88;5.63;;;12.40;99.90;;;;;;4973389;28;20475;-65
2023/07/06 00:25:28;;;;;;;11.63;5.28;;;12.40;99.90;;;;;;5005694;28;20713;-64
2023/07/06 00:27:54;;;;;;;13.20;5.78;;;12.40;99.90;;;;;;5007576;28;20103;-64
2023/07/06 00:30:30;;;;;;;11.35;5.95;;;12.30;99.90;;;;;;5007822;28;20150;-66
2023/07/06 00:32:59;;;;;;;17.50;5.88;;;12.30;99.90;;;;;;5006892;28;20102;-65
2023/07/06 00:35:25;;;;;;;14.02;6.40;;;12.30;99.90;;;;;;4988969;28;20050;-65
2023/07/06 00:37:51;;;;;;;16.67;6.38;;;12.30;99.90;;;;;;4990247;28;20262;-65
2023/07/06 00:40:17;;;;;;;11.73;5.50;;;12.30;99.90;;;;;;4971424;28;20050;-65
2023/07/06 00:42:44;;;;;;;15.35;6.35;;;12.30;99.90;;;;;;5006715;28;20046;-66
2023/07/06 00:45:10;;;;;;;11.75;6.53;;;12.30;99.90;;;;;;4988757;28;20456;-65
2023/07/06 00:47:46;;;;;;;12.85;7.25;;;12.20;99.90;;;;;;5008313;28;20542;-66
2023/07/06 00:50:16;;;;;;;18.90;7.40;;;12.20;99.90;;;;;;4974462;28;20046;-67
2023/07/06 00:52:48;;;;;;;14.88;7.55;;;12.20;99.90;;;;;;4987435;28;20042;-66
2023/07/06 00:55:16;;;;;;;14.05;7.15;;;12.20;99.90;;;;;;4981756;28;20129;-66
2023/07/06 00:57:47;;;;;;;17.33;7.82;;;12.20;99.90;;;;;;4970072;28;20078;-67
2023/07/06 01:00:20;;;;;;;17.42;7.60;;;12.20;99.90;;;;;;4969908;28;20089;-67
2023/07/06 01:02:51;;;;;;;14.15;7.70;;;12.20;99.90;;;;;;4969508;28;20117;-66
2023/07/06 01:05:18;;;;;;;13.63;8.18;;;12.20;99.90;;;;;;5000896;28;20540;-67
2023/07/06 01:07:45;;;;;;;15.75;8.35;;;12.20;99.90;;;;;;4987557;28;20092;-65
2023/07/06 01:10:13;;;;;;;13.93;7.78;;;12.20;99.90;;;;;;4981288;28;20076;-65
2023/07/06 01:12:38;;;;;;;13.15;8.23;;;12.20;99.90;;;;;;4989343;28;20477;-65
2023/07/06 01:15:06;;;;;;;17.40;8.75;;;12.10;99.90;;;;;;4972711;28;20069;-66
2023/07/06 01:17:58;;;;;;;17.85;9.20;;;12.10;99.90;;;;;;4985916;28;20452;-66
2023/07/06 01:20:32;;;;;;;16.50;8.60;;;12.20;99.90;;;;;;4987155;28;20650;-67
2023/07/06 01:23:37;;;;;;;21.38;8.93;;;12.10;99.90;;;;;;4985241;28;20058;-66
2023/07/06 01:26:15;;;;;;;17.48;9.25;;;12.10;99.90;;;;;;4968150;28;20050;-66
2023/07/06 01:28:45;;;;;;;20.73;9.43;;;12.10;99.90;;;;;;4969341;28;20061;-68
2023/07/06 01:31:36;;;;;;;18.02;9.65;;;12.10;99.90;;;;;;4985561;28;20050;-67
2023/07/06 01:34:17;;;;;;;18.77;10.15;;;12.10;99.90;;;;;;4994830;28;20050;-66
2023/07/06 01:36:58;;;;;;;19.45;10.23;;;12.10;99.90;;;;;;4986602;28;20050;-67
2023/07/06 01:39:27;;;;;;;18.10;9.93;;;12.10;99.90;;;;;;4991586;28;20410;-66
2023/07/06 01:42:12;;;;;;;16.45;9.65;;;12.10;99.90;;;;;;4987179;28;20045;-67
2023/07/06 01:44:41;;;;;;;17.80;10.35;;;12.10;99.90;;;;;;5004781;28;20112;-71
2023/07/06 01:47:08;;;;;;;20.75;10.32;;;12.10;99.90;;;;;;4972349;28;20095;-67
2023/07/06 01:49:34;;;;;;;19.48;10.38;;;12.10;99.90;;;;;;4969284;28;20116;-66
2023/07/06 01:52:06;;;;;;;22.58;11.43;;;12.10;99.90;;;;;;4987656;28;20433;-68
2023/07/06 01:55:08;;;;;;;22.05;11.13;;;12.10;99.90;;;;;;4988189;28;20496;-71
2023/07/06 01:57:40;;;;;;;22.10;11.52;;;12.10;99.90;;;;;;4968483;28;20042;-66
2023/07/06 02:00:11;;;;;;;22.05;11.10;;;12.00;99.90;;;;;;4956238;28;20121;-65
2023/07/06 02:02:36;;;;;;;23.33;11.85;;;12.00;99.90;;;;;;4987513;28;20065;-66
2023/07/06 02:05:03;;;;;;;19.33;9.98;;;12.10;99.90;;;;;;4987361;28;20458;-65
2023/07/06 02:07:29;;;;;;;24.13;11.85;;;12.10;99.90;;;;;;4988151;28;20073;-66
2023/07/06 02:09:54;;;;;;;21.58;11.48;;;12.10;99.90;;;;;;4981462;28;20073;-66
2023/07/06 02:12:21;;;;;;;19.52;11.82;;;12.10;99.90;;;;;;4986396;28;20563;-66
2023/07/06 02:14:48;;;;;;;17.92;10.85;;;12.10;99.90;;;;;;5005415;28;20041;-67
2023/07/06 02:17:15;;;;;;;19.33;11.48;;;12.10;99.90;;;;;;4987533;28;20056;-66
2023/07/06 02:19:43;;;;;;;17.40;10.30;;;12.20;99.90;;;;;;5004240;28;20046;-66
2023/07/06 02:22:10;;;;;;;18.92;11.10;;;12.20;99.90;;;;;;4986785;28;20165;-66
2023/07/06 02:24:36;;;;;;;17.55;10.13;;;12.20;99.90;;;;;;4986304;28;20092;-66
2023/07/06 02:27:02;;;;;;;21.45;11.23;;;12.20;99.90;;;;;;5002983;28;20116;-66
2023/07/06 02:29:28;;;;;;;16.75;9.82;;;12.20;99.90;;;;;;5003403;28;20042;-66
2023/07/06 02:31:53;;;;;;;20.65;10.65;;;12.20;99.90;;;;;;5005003;28;20047;-67
2023/07/06 02:34:24;;;;;;;16.42;10.55;;;12.20;99.90;;;;;;4986234;28;20116;-67
2023/07/06 02:36:55;;;;;;;22.45;11.02;;;12.20;99.90;;;;;;4987464;28;20050;-67
2023/07/06 02:39:24;;;;;;;18.85;9.88;;;12.30;99.90;;;;;;4987357;28;20061;-66
2023/07/06 02:41:54;;;;;;;17.45;10.23;;;12.30;99.90;;;;;;5004055;28;20046;-66
2023/07/06 02:44:20;;;;;;;16.70;9.63;;;12.30;99.90;;;;;;5004383;28;20477;-67
2023/07/06 02:46:47;;;;;;;17.33;9.57;;;12.30;99.90;;;;;;4971594;28;20603;-66
2023/07/06 02:49:13;;;;;;;18.30;10.00;;;12.30;99.90;;;;;;5003854;28;20429;-66
2023/07/06 02:51:40;;;;;;;16.08;9.20;;;12.30;99.90;;;;;;5004644;28;20108;-67
2023/07/06 02:54:06;;;;;;;16.65;9.10;;;12.30;99.90;;;;;;4966704;28;20046;-66
2023/07/06 02:56:32;;;;;;;14.93;8.80;;;12.30;99.90;;;;;;4966731;28;20046;-66
2023/07/06 02:58:58;;;;;;;18.83;9.48;;;12.30;99.90;;;;;;4951535;28;20522;-67
2023/07/06 03:01:24;;;;;;;15.93;9.57;;;12.30;99.90;;;;;;4993246;28;20101;-65
2023/07/06 03:03:52;;;;;;;15.52;9.10;;;12.30;99.90;;;;;;4971392;28;20257;-66
2023/07/06 03:06:19;;;;;;;14.23;8.93;;;12.30;99.90;;;;;;4970706;28;20049;-66
2023/07/06 03:08:46;;;;;;;14.95;9.00;;;12.30;99.90;;;;;;5004093;28;20492;-64
2023/07/06 03:11:11;;;;;;;14.38;8.55;;;12.30;99.90;;;;;;4985387;28;20575;-65
2023/07/06 03:13:37;;;;;;;17.00;9.60;;;12.20;99.90;;;;;;4986418;28;20121;-66
2023/07/06 03:16:05;;;;;;;17.23;9.15;;;12.20;99.90;;;;;;4970811;28;20046;-65
2023/07/06 03:18:30;;;;;;;18.42;8.93;;;12.20;99.90;;;;;;4985230;28;20092;-66
2023/07/06 03:20:56;;;;;;;17.30;8.77;;;12.20;99.90;;;;;;4985799;28;20038;-69
2023/07/06 03:23:23;;;;;;;19.00;8.80;;;12.20;99.90;;;;;;4970626;28;20038;-65
2023/07/06 03:25:52;;;;;;;17.30;8.55;;;12.20;99.90;;;;;;4984533;28;20041;-66
2023/07/06 03:28:19;;;;;;;14.65;8.93;;;12.20;99.90;;;;;;4986866;28;20038;-64
2023/07/06 03:30:44;;;;;;;15.73;8.88;;;12.10;99.90;;;;;;4983668;28;20038;-67
2023/07/06 03:33:11;;;;;;;13.70;8.60;;;12.20;99.90;;;;;;5001631;28;20042;-67
2023/07/06 03:35:41;;;;;;;18.15;8.52;;;12.10;99.90;;;;;;4977618;28;20038;-66
2023/07/06 03:38:07;;;;;;;20.83;8.60;;;12.10;99.90;;;;;;4986635;28;20037;-67
2023/07/06 03:40:33;;;;;;;15.13;8.68;;;12.10;99.90;;;;;;5001828;28;20080;-65
2023/07/06 03:42:58;;;;;;;16.13;8.45;;;12.10;99.90;;;;;;4988056;28;20457;-65
2023/07/06 03:45:25;;;;;;;13.80;8.20;;;12.10;99.90;;;;;;5003226;28;20038;-65
2023/07/06 03:47:51;;;;;;;19.02;9.05;;;12.10;99.90;;;;;;5003605;28;20092;-68
2023/07/06 03:50:20;;;;;;;16.02;8.18;;;12.10;99.90;;;;;;4985780;28;20049;-67
2023/07/06 03:52:47;;;;;;;14.57;8.82;;;12.10;99.90;;;;;;4986675;28;20069;-66
2023/07/06 03:55:20;;;;;;;19.02;8.07;;;12.10;99.90;;;;;;4985170;28;20038;-66
2023/07/06 03:57:46;;;;;;;12.87;8.33;;;12.10;99.90;;;;;;4986404;28;20508;-67
2023/07/06 04:00:19;;;;;;;17.00;8.35;;;12.10;99.90;;;;;;5004186;28;20041;-67
2023/07/06 04:02:47;;;;;;;16.33;8.97;;;12.20;99.90;;;;;;4969063;28;20076;-68
2023/07/06 04:05:13;;;;;;;16.98;8.40;;;12.30;99.90;;;;;;5003184;28;20625;-67
2023/07/06 04:07:40;;;;;;;21.30;8.43;;;12.40;99.90;;;;;;4986054;28;20093;-67
2023/07/06 04:10:06;;;;;;;16.30;8.38;;;12.70;99.90;;;;;;4984854;28;20121;-66
2023/07/06 04:12:32;;;;;;;16.67;8.13;;;12.80;99.90;;;;;;5002157;28;20460;-66
2023/07/06 04:14:58;;;;;;;17.10;7.88;;;12.90;99.90;;;;;;4983993;28;20445;-68
2023/07/06 04:17:24;;;;;;;13.43;7.53;;;13.00;99.90;;;;;;4967909;28;20043;-65
2023/07/06 04:19:53;;;;;;;14.38;8.63;;;13.00;99.90;;;;;;4979110;28;20117;-66
2023/07/06 04:22:19;;;;;;;15.48;8.60;;;13.00;99.90;;;;;;4989358;28;20088;-67
2023/07/06 04:24:45;;;;;;;21.35;9.07;;;13.00;99.90;;;;;;5007233;28;20077;-65
2023/07/06 04:27:10;;;;;;;12.57;8.20;;;13.00;99.90;;;;;;5006584;28;20600;-66
2023/07/06 04:29:37;;;;;;;17.45;8.95;;;12.90;99.90;;;;;;4989292;28;20048;-68
2023/07/06 04:32:04;;;;;;;18.50;9.40;;;12.90;99.90;;;;;;4989231;28;20503;-68
2023/07/06 04:34:30;;;;;;;15.43;9.15;;;12.90;99.90;;;;;;5006673;28;20073;-67
2023/07/06 04:36:56;;;;;;;21.38;9.65;;;12.90;99.90;;;;;;5006172;28;20088;-67
2023/07/06 04:39:22;;;;;;;17.98;9.05;;;12.80;99.90;;;;;;5006637;28;20108;-66
2023/07/06 04:41:48;;;;;;;18.75;9.65;;;12.80;99.90;;;;;;4988632;28;20054;-64
2023/07/06 04:44:16;;;;;;;20.65;9.65;;;12.80;99.90;;;;;;5001194;28;20121;-67
2023/07/06 04:46:42;;;;;;;21.05;9.90;;;12.80;99.90;;;;;;4963737;28;20041;-66
2023/07/06 04:49:07;;;;;;;20.85;9.98;;;12.80;99.90;;;;;;4988223;28;20038;-66
2023/07/06 04:51:37;;;;;;;18.23;10.23;;;12.80;99.90;;;;;;4988702;28;20045;-67
2023/07/06 04:54:03;;;;;;;21.08;9.82;;;12.80;99.90;;;;;;5006765;28;20041;-67
2023/07/06 04:56:29;;;;;;;19.50;9.68;;;12.80;99.90;;;;;;4988195;28;20041;-67
2023/07/06 04:58:56;;;;;;;16.70;9.95;;;12.80;99.90;;;;;;4972507;28;20407;-67
2023/07/06 05:01:24;;;;;;;22.77;10.63;;;12.80;99.90;;;;;;4972913;28;20077;-66
2023/07/06 05:03:50;;;;;;;19.75;9.95;;;12.80;99.90;;;;;;5005463;28;20109;-68
2023/07/06 05:06:16;;;;;;;19.33;9.85;;;12.80;99.90;;;;;;5006337;28;20121;-67
2023/07/06 05:08:43;;;;;;;20.13;11.07;;;12.80;99.90;;;;;;4972934;28;20054;-68
2023/07/06 05:11:10;;;;;;;18.88;10.82;;;12.80;99.90;;;;;;4971733;28;20037;-66
2023/07/06 05:13:36;;;;;;;25.77;10.13;;;12.80;99.90;;;;;;5005679;28;20042;-66
2023/07/06 05:16:01;;;;;;;24.23;9.60;;;12.80;99.90;;;;;;5006823;28;20125;-67
2023/07/06 05:18:29;;;;;;;23.95;10.30;;;12.80;99.90;;;;;;4987957;28;20054;-67
2023/07/06 05:20:56;;;;;;;22.40;10.70;;;13.10;99.90;;;;;;4976028;28;20050;-66
2023/07/06 05:23:23;;;;;;;19.15;8.63;;;13.40;99.90;;;;;;4988047;28;20054;-67
2023/07/06 05:25:53;;;;;;;18.40;8.98;;;13.60;99.90;;;;;;4987291;28;20052;-67
2023/07/06 05:28:20;;;;;;;19.90;9.18;;;14.00;99.90;;;;;;4972352;28;20033;-67
2023/07/06 05:30:47;;;;;;;18.05;10.15;;;14.20;99.90;;;;;;4988714;28;20042;-65
2023/07/06 05:33:12;;;;;;;19.92;9.63;;;14.20;99.90;;;;;;4986778;28;20045;-64
2023/07/06 05:35:39;;;;;;;14.57;8.25;;;14.30;99.90;;;;;;4987228;28;20067;-66
2023/07/06 05:38:10;;;;;;;18.98;9.25;;;14.30;99.90;;;;;;4989178;28;20100;-66
2023/07/06 05:40:36;;;;;;;18.88;9.10;;;14.20;99.90;;;;;;4977399;28;20054;-66
2023/07/06 05:43:02;;;;;;;22.95;9.50;;;14.20;99.90;;;;;;4969951;28;20069;-67
2023/07/06 05:45:27;;;;;;;22.05;9.57;;;14.10;99.90;;;;;;4996925;28;20034;-66
2023/07/06 05:47:53;;;;;;;18.77;9.57;;;14.10;99.90;;;;;;4973303;28;20042;-66
2023/07/06 05:50:19;;;;;;;22.13;9.20;;;14.10;99.90;;;;;;4987256;28;20044;-67
2023/07/06 05:52:45;;;;;;;17.85;8.27;;;14.20;99.90;;;;;;4988225;28;20441;-71
2023/07/06 05:55:11;;;;;;;18.23;7.97;;;14.50;99.90;;;;;;4987058;28;20501;-67
2023/07/06 05:57:37;;;;;;;19.00;7.97;;;14.70;99.90;;;;;;4967482;28;20155;-66
2023/07/06 06:00:09;;;;;;;16.48;8.40;;;14.90;99.90;;;;;;4974025;28;20033;-65
2023/07/06 06:02:36;;;;;;;18.77;8.55;;;15.20;99.90;;;;;;4963853;28;20089;-67
2023/07/06 06:05:02;;;;;;;18.85;8.07;;;15.50;99.90;;;;;;4978427;28;20057;-65
2023/07/06 06:07:31;;;;;;;21.77;8.98;;;15.70;99.90;;;;;;4976061;28;20034;-70
2023/07/06 06:09:57;;;;;;;19.65;8.73;;;16.00;99.90;;;;;;4978648;28;20460;-66
2023/07/06 06:12:23;;;;;;;17.15;7.20;;;16.10;99.90;;;;;;4971520;28;20046;-69
2023/07/06 06:14:53;;;;;;;21.48;7.65;;;16.20;99.90;;;;;;5000704;28;20030;-65
2023/07/06 06:17:19;;;;;;;19.70;8.55;;;16.30;99.90;;;;;;4981108;28;20069;-69
2023/07/06 06:19:45;;;;;;;20.95;8.30;;;16.40;99.90;;;;;;4978881;28;20045;-67
2023/07/06 06:22:14;;;;;;;18.75;7.00;;;16.50;99.90;;;;;;4970993;28;20854;-67
2023/07/06 06:24:40;;;;;;;16.42;7.80;;;16.60;99.90;;;;;;4970852;28;20052;-67
2023/07/06 06:27:05;;;;;;;15.52;7.20;;;16.70;99.90;;;;;;5003959;28;20535;-67
2023/07/06 06:29:32;;;;;;;22.05;7.78;;;16.80;99.90;;;;;;4987595;28;20240;-66
2023/07/06 06:31:59;;;;;;;16.77;7.15;;;16.90;99.90;;;;;;5005365;28;20038;-63
2023/07/06 06:34:25;;;;;;;18.02;7.93;;;17.00;99.90;;;;;;4987234;28;20050;-71
2023/07/06 06:36:51;;;;;;;18.88;7.90;;;17.00;99.90;;;;;;4971397;28;20051;-68
2023/07/06 06:39:19;;;;;;;21.85;7.95;;;17.00;99.90;;;;;;4985783;28;20096;-66
2023/07/06 06:41:46;;;;;;;16.48;7.65;;;17.10;99.90;;;;;;4962898;28;20053;-64
2023/07/06 06:44:12;;;;;;;21.95;7.60;;;17.20;99.90;;;;;;4967323;28;20413;-64
2023/07/06 06:46:38;;;;;;;17.08;7.90;;;17.20;99.90;;;;;;4965070;28;20041;-66
2023/07/06 06:49:04;;;;;;;17.30;7.88;;;17.30;99.90;;;;;;4986367;28;20106;-67
2023/07/06 06:51:29;;;;;;;16.20;7.35;;;17.40;99.90;;;;;;5003504;28;20484;-65
2023/07/06 06:53:55;;;;;;;21.42;8.13;;;17.50;99.90;;;;;;5005259;28;20088;-66
2023/07/06 06:56:22;;;;;;;19.38;7.80;;;17.50;99.90;;;;;;5004360;28;20054;-69
2023/07/06 06:58:48;;;;;;;15.38;6.95;;;17.60;99.90;;;;;;5005109;28;20089;-66
2023/07/06 07:01:15;;;;;;;18.38;6.40;;;17.60;99.90;;;;;;5003377;28;20092;-66
2023/07/06 07:03:40;;;;;;;19.85;7.22;;;17.70;99.90;;;;;;5003445;28;20505;-66
2023/07/06 07:06:11;;;;;;;14.00;6.82;;;17.70;99.90;;;;;;4987284;28;20048;-64
2023/07/06 07:08:41;;;;;;;17.02;6.72;;;17.70;99.90;;;;;;4986685;28;20153;-69
2023/07/06 07:11:07;;;;;;;17.60;6.70;;;17.70;99.90;;;;;;4985591;28;20046;-66
2023/07/06 07:13:37;;;;;;;17.10;6.43;;;17.70;99.90;;;;;;4986861;28;20045;-65
2023/07/06 07:16:11;;;;;;;17.33;7.15;;;17.80;99.90;;;;;;5004736;28;20045;-66
2023/07/06 07:18:38;;;;;;;18.73;7.40;;;17.80;99.90;;;;;;4986191;28;20042;-65
2023/07/06 07:21:07;;;;;;;19.40;5.95;;;17.80;99.90;;;;;;4986818;28;20046;-67
2023/07/06 07:23:41;;;;;;;13.25;5.90;;;17.90;99.90;;;;;;5002984;28;20046;-67
2023/07/06 07:26:12;;;;;;;17.08;5.95;;;17.90;99.90;;;;;;5002514;28;20056;-65
2023/07/06 07:28:38;;;;;;;11.02;5.50;;;17.90;99.90;;;;;;4986928;28;20042;-65
2023/07/06 07:31:07;;;;;;;14.52;5.70;;;18.00;99.90;;;;;;4970864;28;20068;-65
2023/07/06 07:33:32;;;;;;;17.25;5.63;;;18.00;99.90;;;;;;4955317;28;20453;-66
2023/07/06 07:36:02;;;;;;;14.23;5.03;;;18.10;99.90;;;;;;4986979;28;20038;-64
2023/07/06 07:38:28;;;;;;;19.00;5.72;;;18.20;99.90;;;;;;5004759;28;20045;-65
2023/07/06 07:41:00;;;;;;;11.75;4.65;;;18.20;99.90;;;;;;4984709;28;20757;-65
2023/07/06 07:43:28;;;;;;;12.43;4.82;;;18.20;99.90;;;;;;4986594;28;20074;-68
2023/07/06 07:45:55;;;;;;;12.25;4.72;;;18.30;99.90;;;;;;4979653;28;20504;-64
2023/07/06 07:48:25;;;;;;;13.52;4.50;;;18.30;99.90;;;;;;4986010;28;20042;-66
2023/07/06 07:50:53;;;;;;;16.48;4.63;;;18.30;99.90;;;;;;5004294;28;20065;-66
2023/07/06 07:53:22;;;;;;;14.52;4.43;;;18.30;99.90;;;;;;4970739;28;20041;-67
2023/07/06 07:55:49;;;;;;;10.88;3.90;;;18.30;99.90;;;;;;4970380;28;20117;-65
2023/07/06 07:58:17;;;;;;;13.18;3.92;;;18.30;99.90;;;;;;4989595;28;20045;-63
2023/07/06 08:00:57;;;;;;;10.52;3.08;;;18.40;99.90;;;;;;5007846;28;20584;-64
2023/07/06 08:03:24;;;;;;;10.40;3.20;;;18.50;99.90;;;;;;5005182;28;20046;-67
2023/07/06 08:05:58;;;;;;;13.75;3.78;;;18.50;99.90;;;;;;4990353;28;20495;-67
2023/07/06 08:08:25;;;;;;;9.55;3.30;;;18.70;99.90;;;;;;5008412;28;20046;-67
2023/07/06 08:10:55;;;;;;;11.60;3.25;;;18.70;99.90;;;;;;4986326;28;20061;-66
2023/07/06 08:13:22;;;;;;;11.70;2.78;;;18.60;99.90;;;;;;4971159;28;20561;-68
2023/07/06 08:15:49;;;;;;;10.38;2.72;;;18.60;99.90;;;;;;4972961;28;20481;-72
2023/07/06 08:18:15;;;;;;;11.73;2.75;;;18.60;99.90;;;;;;4990084;28;20053;-67
2023/07/06 08:20:43;;;;;;;7.82;2.70;;;18.60;99.90;;;;;;5007691;28;20049;-66
2023/07/06 08:23:12;;;;;;;8.98;2.92;;;18.80;99.90;;;;;;4990049;28;20038;-67
2023/07/06 08:25:40;;;;;;;12.07;2.97;;;18.90;99.90;;;;;;4988555;28;20468;-66
2023/07/06 08:28:08;;;;;;;11.20;2.85;;;19.00;99.90;;;;;;4990187;28;20045;-65
2023/07/06 08:30:35;;;;;;;9.88;3.08;;;19.10;99.90;;;;;;5008028;28;20050;-64
2023/07/06 08:33:01;;;;;;;8.55;2.95;;;19.20;99.90;;;;;;4989331;28;20442;-66
2023/07/06 08:35:28;;;;;;;12.52;3.00;;;19.30;99.90;;;;;;5007350;28;20049;-72
2023/07/06 08:37:57;;;;;;;9.02;3.13;;;19.40;99.90;;;;;;4974128;28;20046;-67
2023/07/06 08:40:28;;;;;;;11.57;2.63;;;19.40;99.90;;;;;;5005761;28;20128;-67
2023/07/06 08:42:56;;;;;;;8.70;2.17;;;19.40;99.90;;;;;;4989148;28;20061;-69
2023/07/06 08:45:36;;;;;;;9.18;2.97;;;19.40;99.90;;;;;;4973939;28;20530;-67
2023/07/06 08:48:02;;;;;;;10.82;3.33;;;19.20;99.90;;;;;;4989255;28;20054;-66
2023/07/06 08:50:31;;;;;;;9.52;2.78;;;19.20;99.90;;;;;;5001849;28;20054;-66
2023/07/06 08:52:57;;;;;;;7.40;2.35;;;19.20;99.90;;;;;;4955393;28;20077;-67
2023/07/06 08:55:24;;;;;;;8.68;2.28;;;19.20;99.90;;;;;;4988064;28;20041;-64
2023/07/06 08:57:50;;;;;;;8.35;2.20;;;19.20;99.90;;;;;;4990019;28;20038;-67
2023/07/06 09:00:21;;;;;;;6.90;2.30;;;19.10;99.90;;;;;;4973162;28;20044;-70
2023/07/06 09:02:48;;;;;;;6.95;2.40;;;19.00;99.90;;;;;;4989106;28;20042;-68
2023/07/06 09:05:15;;;;;;;11.43;2.42;;;18.90;99.90;;;;;;4958370;28;20043;-68
2023/07/06 09:07:43;;;;;;;7.95;1.92;;;18.90;99.90;;;;;;4969129;28;20049;-68
2023/07/06 09:10:14;;;;;;;7.57;1.98;;;18.90;99.90;;;;;;4979386;28;20045;-67
2023/07/06 09:12:39;;;;;;;9.80;2.03;;;18.90;99.90;;;;;;4988612;28;20040;-69
2023/07/06 09:15:08;;;;;;;5.28;1.70;;;19.00;99.90;;;;;;4989495;28;20050;-65
2023/07/06 09:17:44;;;;;;;7.35;1.90;;;19.20;99.90;;;;;;4988458;28;20077;-67
2023/07/06 09:20:12;;;;;;;6.60;2.30;;;19.30;99.90;;;;;;4971505;28;20108;-66
2023/07/06 09:22:42;;;;;;;6.97;1.88;;;19.50;99.90;;;;;;4981890;28;20049;-67
2023/07/06 09:25:15;;;;;;;7.28;2.08;;;19.60;99.90;;;;;;4980609;28;20041;-67
2023/07/06 09:27:48;;;;;;;7.55;2.05;;;19.80;99.90;;;;;;4972530;28;20073;-66
2023/07/06 09:30:29;;;;;;;5.63;1.93;;;19.90;99.90;;;;;;4988771;28;20042;-64
2023/07/06 09:33:00;;;;;;;8.68;1.95;;;19.80;99.90;;;;;;4988331;28;20041;-67
2023/07/06 09:35:29;;;;;;;;;;;19.60;99.90;;;;;;4989270;28;20046;-64
2023/07/06 09:37:55;;;;;;;16.13;1.98;;;19.40;99.90;;;;;;5006374;28;19921;-64
2023/07/06 09:40:29;;;;;;;9.82;2.65;;;19.20;99.90;;;;;;5004626;28;20062;-64
2023/07/06 09:42:54;;;;;;;10.27;2.50;;;19.20;99.90;;;;;;4955822;28;20039;-65
2023/07/06 09:45:26;;;;;;;6.28;1.77;;;19.20;99.90;;;;;;4998149;28;20099;-66
2023/07/06 09:48:01;;;;;;;7.30;1.90;;;19.30;99.90;;;;;;4987753;28;20048;-66
2023/07/06 09:50:35;;;;;;;8.20;2.10;;;19.40;99.90;;;;;;4987506;28;20076;-68
2023/07/06 09:53:05;;;;;;;8.95;2.30;;;19.40;99.90;;;;;;4988694;28;20049;-66
2023/07/06 09:55:31;;;;;;;7.05;2.03;;;19.40;99.90;;;;;;4987129;28;20100;-65
2023/07/06 09:57:58;;;;;;;6.55;1.67;;;19.40;99.90;;;;;;4988172;28;20258;-67
2023/07/06 10:00:36;;;;;;;5.32;1.48;;;19.50;99.90;;;;;;4988423;28;20041;-68
2023/07/06 10:03:21;;;;;;;8.07;2.00;;;19.50;99.90;;;;;;4987845;28;20632;-67
2023/07/06 10:05:54;;;;;;;;;;;19.40;99.20;;;;;;4987474;28;20555;-66
2023/07/06 10:08:44;;;;;;;6.78;2.08;;;19.30;99.90;;;;;;4988786;28;20732;-66
2023/07/06 10:11:42;;;;;;;6.90;2.60;;;19.40;99.90;;;;;;4966730;28;20058;-67
2023/07/06 10:14:34;;;;;;;7.80;1.80;;;19.50;99.90;;;;;;4966891;28;20058;-66
2023/07/06 10:17:19;;;;;;;8.43;2.33;;;19.70;99.90;;;;;;4969035;28;20155;-65
2023/07/06 10:20:05;;;;;;;9.13;2.60;;;19.90;99.90;;;;;;4978152;28;20049;-67
2023/07/06 10:22:58;;;;;;;8.77;1.98;;;19.90;99.90;;;;;;4972163;28;20089;-66
2023/07/06 10:25:27;;;;;;;6.10;1.95;;;20.00;99.90;;;;;;4966899;28;20049;-66
2023/07/06 10:27:58;;;;;;;8.70;2.03;;;20.10;99.90;;;;;;4986262;28;20783;-67
2023/07/06 10:30:36;;;;;;;8.63;2.10;;;20.20;99.90;;;;;;4955877;28;20061;-66
2023/07/06 10:33:10;;;;;;;7.80;2.17;;;20.30;99.90;;;;;;4987503;28;20599;-66
2023/07/06 10:35:45;;;;;;;5.95;2.00;;;20.40;99.30;;;;;;5004595;28;20053;-70
2023/07/06 10:38:11;;;;;;;7.40;2.20;;;20.60;99.90;;;;;;4988216;28;20033;-69
2023/07/06 10:40:37;;;;;;;9.75;2.13;;;20.60;99.70;;;;;;4969876;28;20050;-67
2023/07/06 10:43:20;;;;;;;6.32;2.00;;;20.70;99.70;;;;;;4986564;28;20087;-68
2023/07/06 10:45:48;;;;;;;6.95;2.03;;;20.60;97.10;;;;;;4988165;28;20049;-69
2023/07/06 10:48:34;;;;;;;7.15;1.98;;;20.50;98.10;;;;;;4980981;28;20154;-70
2023/07/06 10:51:22;;;;;;;7.93;2.55;;;20.50;97.90;;;;;;4967705;28;20859;-67
2023/07/06 10:54:17;;;;;;;7.38;1.90;;;20.50;97.20;;;;;;4968287;28;20038;-68
2023/07/06 10:56:47;;;;;;;7.43;1.98;;;20.40;97.20;;;;;;4998524;28;20081;-68
2023/07/06 10:59:17;;;;;;;6.43;2.00;;;20.30;98.80;;;;;;5004837;28;20061;-70
2023/07/06 11:01:46;;;;;;;6.45;2.08;;;20.30;99.50;;;;;;4987087;28;20060;-69
2023/07/06 11:04:40;;;;;;;6.35;2.03;;;20.40;98.40;;;;;;4986067;28;20318;-65
2023/07/06 11:07:10;;;;;;;6.55;1.60;;;20.50;97.00;;;;;;4987149;28;20044;-66
2023/07/06 11:10:15;;;;;;;5.07;1.58;;;20.60;98.20;;;;;;4986849;28;20519;-65
2023/07/06 11:12:52;;;;;;;5.20;1.55;;;20.70;97.00;;;;;;4973054;28;20060;-66
2023/07/06 11:15:21;;;;;;;4.32;1.52;;;20.70;94.90;;;;;;4987410;28;20105;-70
2023/07/06 11:17:51;;;;;;;5.43;1.40;;;20.70;95.30;;;;;;4970495;28;20046;-67
2023/07/06 11:20:28;;;;;;;7.75;1.45;;;20.70;95.10;;;;;;5004073;28;20096;-66
2023/07/06 11:22:59;;;;;;;5.97;1.50;;;20.80;94.40;;;;;;5004337;28;20052;-69
2023/07/06 11:25:28;;;;;;;6.60;1.85;;;20.80;95.30;;;;;;4985593;28;20056;-67
2023/07/06 11:28:04;;;;;;;7.43;1.67;;;20.80;95.10;;;;;;4986871;28;20042;-68
2023/07/06 11:30:39;;;;;;;7.45;1.88;;;20.70;95.30;;;;;;5006408;28;20049;-69
2023/07/06 11:33:10;;;;;;;9.98;1.75;;;20.70;95.80;;;;;;4977077;28;20492;-67
2023/07/06 11:35:47;;;;;;;7.13;2.22;;;20.60;95.20;;;;;;4976393;28;20057;-65
2023/07/06 11:38:30;;;;;;;6.22;2.00;;;20.60;95.50;;;;;;4993600;28;20117;-66
2023/07/06 11:41:14;;;;;;;6.43;1.52;;;20.60;95.80;;;;;;5008396;28;20054;-68
2023/07/06 11:43:59;;;;;;;5.77;1.60;;;20.60;96.40;;;;;;4976233;28;20121;-64
2023/07/06 11:46:55;;;;;;;6.53;1.80;;;20.60;96.70;;;;;;4977214;28;20470;-69
2023/07/06 11:49:42;;;;;;;8.75;2.20;;;20.80;97.70;;;;;;4992099;28;20081;-68
2023/07/06 11:52:20;;;;;;;6.05;2.05;;;20.90;95.60;;;;;;4976905;28;20045;-65
2023/07/06 11:54:51;;;;;;;5.97;2.10;;;20.80;97.20;;;;;;4977512;28;20038;-71
2023/07/06 12:00:32;;;;;;;5.45;1.58;;;20.50;95.60;;;;;;4993083;28;20054;-64
2023/07/06 12:03:09;;;;;;;6.72;1.60;;;20.40;96.40;;;;;;4992521;28;20077;-65
2023/07/06 12:05:45;;;;;;;8.32;1.77;;;20.30;96.10;;;;;;4976175;28;20049;-70
2023/07/06 12:08:29;;;;;;;5.28;1.73;;;20.10;96.30;;;;;;4993288;28;20045;-67
2023/07/06 12:11:09;;;;;;;6.30;1.42;;;20.00;95.90;;;;;;5008754;28;20531;-64
2023/07/06 12:13:41;;;;;;;4.90;1.20;;;19.90;96.30;;;;;;4992996;28;20041;-64
2023/07/06 12:16:11;;;;;;;5.75;1.40;;;19.90;96.50;;;;;;4977075;28;20405;-66
2023/07/06 12:18:39;;;;;;;6.10;2.13;;;19.90;96.70;;;;;;4962616;28;20053;-67
2023/07/06 12:21:06;;;;;;;6.75;1.30;;;19.90;96.70;;;;;;4957009;28;20129;-66
2023/07/06 12:23:33;;;;;;;5.78;1.55;;;20.00;96.80;;;;;;4973556;28;20100;-64
2023/07/06 12:25:59;;;;;;;5.78;1.27;;;20.10;96.90;;;;;;4990068;28;20038;-65
2023/07/06 12:28:31;;;;;;;4.60;1.80;;;20.30;96.60;;;;;;4989654;28;20649;-66
2023/07/06 12:31:03;;;;;;;5.20;1.40;;;20.50;96.00;;;;;;4976016;28;20515;-65
2023/07/06 12:33:29;;;;;;;5.55;1.45;;;20.90;94.90;;;;;;4976684;28;20373;-66
2023/07/06 12:35:56;;;;;;;5.18;1.40;;;21.10;94.80;;;;;;4991854;28;20055;-66
2023/07/06 12:38:23;;;;;;;5.32;1.60;;;21.20;94.60;;;;;;4992782;28;20152;-66
2023/07/06 12:40:49;;;;;;;6.97;1.80;;;21.20;94.90;;;;;;4989695;28;20052;-64
2023/07/06 12:43:28;;;;;;;5.88;1.70;;;21.20;95.00;;;;;;5003151;28;20081;-68
2023/07/06 12:45:54;;;;;;;5.85;1.90;;;21.20;95.30;;;;;;5006328;28;20128;-65
2023/07/06 12:48:25;;;;;;;6.63;1.60;;;21.10;95.80;;;;;;4970049;28;20072;-66
2023/07/06 12:50:54;;;;;;;7.40;1.90;;;21.10;97.00;;;;;;4986377;28;20120;-65
2023/07/06 12:53:33;;;;;;;7.18;1.70;;;21.20;98.30;;;;;;4973455;28;20492;-66
2023/07/06 12:56:13;;;;;;;4.80;1.60;;;21.40;97.80;;;;;;4986856;28;20141;-66
2023/07/06 12:58:45;;;;;;;7.40;2.10;;;21.50;98.30;;;;;;4977933;28;20050;-67